Terminal Aerodrome Forecast
Issued by NWS

Home | Current Version | Previous Version | Text Only | Print | Product List | Glossary On
Versions: 1 2 3 4 5 6 7 8 9 10 11 12 13 14
000
FTUS45 KABQ 070542
TAFGUP
TAF
KGUP 070542Z 0706/0806 09005KT P6SM SCT080 BKN140
     FM071800 22006KT P6SM SCT070
     FM072000 24011G20KT P6SM VCSH BKN080
     FM080200 25007KT P6SM SCT080 BKN140=

USA.gov is the U.S. government's official web portal to all federal, state and local government web resources and services.